Time;durP1;ratioP1;P1;durP2;ratioP2;P2;SDS_P1;SDS_P2;PMS_P1;PMS_P2;Temp;Humidity;BMP_temperature;BMP_pressure;BME280_temperature;BME280_humidity;BME280_pressure;Samples;Min_cycle;Max_cycle;Signal;HPM_P1;HPM_P2
2022/02/13 00:00:58;;;;;;;6.38;4.20;;;;;;;4.23;57.14;94686.84;5092204;28;20413;-34
2022/02/13 00:03:24;;;;;;;8.52;3.95;;;;;;;4.14;56.98;94692.44;5091793;28;20024;-34
2022/02/13 00:05:50;;;;;;;7.80;4.80;;;;;;;3.83;58.31;94679.38;5095206;28;20412;-33
2022/02/13 00:08:19;;;;;;;7.47;4.53;;;;;;;3.97;56.31;94686.78;5091783;28;20509;-33
2022/02/13 00:10:44;;;;;;;5.43;3.70;;;;;;;3.96;56.32;94685.28;5091560;28;20045;-37
2022/02/13 00:13:10;;;;;;;8.43;4.38;;;;;;;3.85;56.84;94683.13;5092058;28;20032;-36
2022/02/13 00:15:35;;;;;;;8.00;4.43;;;;;;;3.90;57.82;94687.16;5091829;28;20077;-37
2022/02/13 00:18:01;;;;;;;7.30;4.07;;;;;;;3.96;57.16;94685.28;5091967;28;20023;-37
2022/02/13 00:20:27;;;;;;;5.70;4.10;;;;;;;3.80;56.53;94678.34;5091783;28;20026;-36
2022/02/13 00:22:52;;;;;;;4.65;3.67;;;;;;;3.74;56.07;94679.50;5091679;28;20058;-37
2022/02/13 00:25:18;;;;;;;7.00;3.58;;;;;;;3.63;55.81;94684.78;5091349;28;20020;-38
2022/02/13 00:27:45;;;;;;;6.88;3.45;;;;;;;3.51;56.65;94666.75;5091413;28;20024;-38
2022/02/13 00:30:13;;;;;;;5.32;3.42;;;;;;;3.71;55.75;94680.44;5091809;28;20031;-39
2022/02/13 00:32:39;;;;;;;5.00;3.40;;;;;;;3.59;56.46;94684.25;5091328;28;20050;-38
2022/02/13 00:35:05;;;;;;;4.80;3.47;;;;;;;3.65;55.83;94674.13;5099758;28;20106;-35
2022/02/13 00:37:30;;;;;;;8.75;3.90;;;;;;;3.67;56.36;94686.09;5108704;28;20046;-38
2022/02/13 00:39:56;;;;;;;9.20;5.88;;;;;;;3.55;56.86;94668.03;5111475;28;20018;-41
2022/02/13 00:42:21;;;;;;;6.50;3.88;;;;;;;3.64;57.17;94675.34;5111853;28;20030;-39
2022/02/13 00:44:47;;;;;;;5.80;3.88;;;;;;;3.68;57.63;94675.94;5111620;28;20401;-35
2022/02/13 00:47:13;;;;;;;6.30;4.20;;;;;;;3.56;58.48;94674.25;5111803;28;20022;-38
2022/02/13 00:49:38;;;;;;;6.47;4.05;;;;;;;3.55;59.23;94678.22;5111611;28;20083;-37
2022/02/13 00:52:04;;;;;;;5.55;4.40;;;;;;;3.47;59.15;94672.38;5111342;28;20107;-40
2022/02/13 00:54:32;;;;;;;4.15;3.58;;;;;;;3.35;60.48;94678.91;5111642;28;20097;-40
2022/02/13 00:56:58;;;;;;;5.22;4.30;;;;;;;3.40;60.25;94682.94;5111471;28;20019;-39
2022/02/13 00:59:24;;;;;;;5.97;4.68;;;;;;;3.43;60.60;94688.22;5111141;28;20484;-40
2022/02/13 01:01:49;;;;;;;6.30;3.65;;;;;;;3.54;60.03;94682.91;5111138;28;20019;-37
2022/02/13 01:04:14;;;;;;;5.68;4.13;;;;;;;3.58;59.65;94688.94;5111201;28;20030;-38
2022/02/13 01:06:40;;;;;;;7.30;4.43;;;;;;;3.56;60.48;94688.66;5111115;28;20026;-38
2022/02/13 01:09:05;;;;;;;7.70;4.47;;;;;;;3.41;60.47;94670.78;5110102;28;20033;-37
2022/02/13 01:11:31;;;;;;;7.82;4.93;;;;;;;3.37;61.05;94667.50;5111319;28;20480;-38
2022/02/13 01:13:56;;;;;;;6.10;4.57;;;;;;;3.43;60.30;94673.78;5111257;28;20072;-37
2022/02/13 01:16:22;;;;;;;11.23;5.18;;;;;;;3.46;60.47;94678.31;5110996;28;20480;-36
2022/02/13 01:18:47;;;;;;;8.57;4.70;;;;;;;3.45;59.91;94668.63;5110879;28;20023;-37
2022/02/13 01:21:13;;;;;;;7.05;4.32;;;;;;;3.47;59.24;94666.16;5110915;28;20062;-38
2022/02/13 01:23:42;;;;;;;7.80;4.35;;;;;;;3.17;61.21;94672.88;5110474;28;20100;-36
2022/02/13 01:26:08;;;;;;;6.43;4.28;;;;;;;3.16;60.98;94655.00;5110617;28;20027;-36
2022/02/13 01:28:34;;;;;;;5.07;4.07;;;;;;;3.29;60.03;94677.31;5110817;28;20024;-39
2022/02/13 01:31:02;;;;;;;5.35;3.53;;;;;;;3.21;60.58;94662.53;5110713;28;20024;-39
2022/02/13 01:33:30;;;;;;;6.85;4.28;;;;;;;3.15;60.85;94667.91;5099343;28;20039;-38
2022/02/13 01:35:56;;;;;;;7.70;4.63;;;;;;;3.07;61.26;94662.06;5093094;28;20405;-38
2022/02/13 01:38:22;;;;;;;5.70;4.30;;;;;;;3.08;61.88;94655.38;5110493;28;20039;-38
2022/02/13 01:40:48;;;;;;;4.57;3.75;;;;;;;3.16;61.46;94650.31;5110938;28;20073;-37
2022/02/13 01:43:13;;;;;;;5.95;4.47;;;;;;;3.13;61.36;94653.97;5110629;28;20027;-38
2022/02/13 01:45:39;;;;;;;6.00;3.80;;;;;;;3.03;62.04;94653.31;5110276;28;20066;-39
2022/02/13 01:48:08;;;;;;;5.72;3.67;;;;;;;3.12;61.75;94651.72;5110865;28;20028;-38
2022/02/13 01:50:37;;;;;;;6.18;4.60;;;;;;;3.08;61.61;94658.09;5110850;28;20027;-39
2022/02/13 01:53:02;;;;;;;6.90;4.45;;;;;;;2.96;61.98;94647.50;5110810;28;20504;-37
2022/02/13 01:55:28;;;;;;;6.63;4.20;;;;;;;2.77;62.40;94638.72;5110338;28;20102;-37
2022/02/13 01:57:53;;;;;;;4.45;3.80;;;;;;;2.77;63.08;94646.91;5110383;28;20031;-40
2022/02/13 02:00:19;;;;;;;7.00;4.38;;;;;;;2.78;62.98;94640.25;5110424;28;20015;-38
2022/02/13 02:02:44;;;;;;;7.38;4.60;;;;;;;2.69;64.26;94636.84;5110377;28;20036;-37
2022/02/13 02:05:10;;;;;;;8.30;4.13;;;;;;;2.74;64.57;94644.38;5110555;28;20031;-40
2022/02/13 02:07:36;;;;;;;5.65;4.22;;;;;;;2.80;64.08;94643.25;5110096;28;20429;-40
2022/02/13 02:10:01;;;;;;;6.60;4.68;;;;;;;2.80;64.22;94643.25;5110243;28;20039;-38
2022/02/13 02:12:26;;;;;;;7.85;5.03;;;;;;;2.77;63.44;94646.91;5110487;28;20035;-38
2022/02/13 02:14:52;;;;;;;7.35;4.63;;;;;;;2.65;65.10;94630.81;5110522;28;20099;-39
2022/02/13 02:17:18;;;;;;;8.70;4.75;;;;;;;2.69;64.74;94642.28;5110454;28;20047;-37
2022/02/13 02:19:44;;;;;;;5.85;4.40;;;;;;;2.55;65.37;94643.03;5110430;28;20034;-34
2022/02/13 02:22:09;;;;;;;5.82;4.10;;;;;;;2.56;65.14;94648.00;5110356;28;20030;-36
2022/02/13 02:24:35;;;;;;;9.68;6.13;;;;;;;2.74;64.95;94647.84;5110549;28;20023;-37
2022/02/13 02:27:00;;;;;;;6.95;4.65;;;;;;;2.62;65.42;94646.13;5110013;28;20028;-40
2022/02/13 02:29:27;;;;;;;5.40;3.92;;;;;;;2.62;64.01;94643.41;5101126;28;20016;-40
2022/02/13 02:31:52;;;;;;;11.20;5.00;;;;;;;2.48;65.32;94655.06;5090124;28;20020;-33
2022/02/13 02:34:18;;;;;;;6.35;4.85;;;;;;;2.41;64.53;94651.91;5091415;28;20050;-36
2022/02/13 02:36:43;;;;;;;5.95;3.90;;;;;;;2.23;65.59;94637.22;5103087;28;20374;-37
2022/02/13 02:39:09;;;;;;;6.18;4.43;;;;;;;2.32;65.13;94649.28;5113759;28;20044;-34
2022/02/13 02:41:34;;;;;;;7.90;3.53;;;;;;;2.43;64.85;94650.25;5113544;28;20039;-37
2022/02/13 02:44:00;;;;;;;6.72;3.65;;;;;;;2.34;64.85;94655.03;5113906;28;20027;-36
2022/02/13 02:46:26;;;;;;;6.78;4.07;;;;;;;2.36;64.89;94658.03;5112478;28;20504;-35
2022/02/13 02:48:51;;;;;;;5.25;3.50;;;;;;;2.34;64.52;94655.75;5113756;28;20022;-34
2022/02/13 02:51:17;;;;;;;11.57;5.03;;;;;;;2.26;65.27;94670.97;5113886;28;20027;-37
2022/02/13 02:53:43;;;;;;;5.18;4.07;;;;;;;2.20;65.42;94661.94;5114029;28;20477;-34
2022/02/13 02:56:09;;;;;;;8.40;4.82;;;;;;;2.28;65.52;94669.28;5113666;28;20026;-37
2022/02/13 02:58:35;;;;;;;5.95;4.07;;;;;;;2.26;65.38;94676.41;5113662;28;20031;-37
2022/02/13 03:01:00;;;;;;;10.40;5.57;;;;;;;2.42;65.06;94670.56;5113829;28;20031;-38
2022/02/13 03:03:26;;;;;;;5.50;4.65;;;;;;;2.42;64.69;94675.25;5113698;28;20524;-35
2022/02/13 03:05:52;;;;;;;7.75;4.85;;;;;;;2.29;64.90;94670.06;5113690;28;20027;-38
2022/02/13 03:08:18;;;;;;;8.75;5.40;;;;;;;2.41;64.41;94674.50;5113685;28;20046;-39
2022/02/13 03:10:44;;;;;;;10.20;4.55;;;;;;;2.33;64.28;94670.63;5113670;28;20077;-39
2022/02/13 03:13:14;;;;;;;9.25;5.03;;;;;;;2.16;65.20;94672.25;5113582;28;20096;-40
2022/02/13 03:15:40;;;;;;;10.70;4.93;;;;;;;2.19;66.05;94671.31;5113126;28;20024;-39
2022/02/13 03:18:05;;;;;;;7.25;4.75;;;;;;;1.87;65.81;94659.28;5112533;28;20394;-34
2022/02/13 03:20:31;;;;;;;8.23;4.85;;;;;;;2.18;65.47;94680.72;5113524;28;20038;-32
2022/02/13 03:22:56;;;;;;;8.43;4.50;;;;;;;2.23;64.91;94682.81;5113418;28;20102;-32
2022/02/13 03:25:22;;;;;;;9.82;4.95;;;;;;;2.21;64.74;94683.25;5106590;28;20417;-34
2022/02/13 03:27:47;;;;;;;6.63;4.10;;;;;;;2.23;64.73;94683.53;5092890;28;20024;-38
2022/02/13 03:30:13;;;;;;;7.88;3.88;;;;;;;1.63;65.18;94620.38;5092945;28;20028;-37
2022/02/13 03:32:38;;;;;;;6.97;4.00;;;;;;;1.89;65.75;94680.59;5092889;28;20035;-40
2022/02/13 03:35:04;;;;;;;7.05;4.03;;;;;;;1.86;65.74;94685.00;5092837;28;20017;-39
2022/02/13 03:37:29;;;;;;;6.93;4.47;;;;;;;1.75;65.34;94676.59;5107823;28;20402;-37
2022/02/13 03:39:55;;;;;;;8.07;5.03;;;;;;;1.87;66.24;94674.84;5112823;28;20076;-39
2022/02/13 03:42:20;;;;;;;8.85;4.93;;;;;;;1.71;65.89;94675.25;5113152;28;20073;-35
2022/02/13 03:44:47;;;;;;;14.85;6.65;;;;;;;1.72;66.26;94677.50;5112887;28;20031;-39
2022/02/13 03:47:13;;;;;;;8.07;4.25;;;;;;;1.82;66.53;94684.41;5112356;28;20038;-38
2022/02/13 03:49:39;;;;;;;10.70;5.72;;;;;;;2.09;65.99;94686.22;5112577;28;20024;-39
2022/02/13 03:52:05;;;;;;;7.78;5.18;;;;;;;2.00;65.69;94683.56;5112865;28;20092;-38
2022/02/13 03:54:30;;;;;;;10.55;5.45;;;;;;;2.16;64.82;94677.72;5112876;28;20073;-39
2022/02/13 03:56:56;;;;;;;9.40;4.28;;;;;;;2.06;64.79;94678.97;5112838;28;20016;-39
2022/02/13 03:59:22;;;;;;;8.63;4.68;;;;;;;2.12;64.36;94679.84;5112609;28;20042;-39
2022/02/13 04:01:47;;;;;;;6.82;4.47;;;;;;;2.01;64.66;94680.38;5112683;28;20505;-40
2022/02/13 04:04:13;;;;;;;9.88;4.35;;;;;;;1.98;65.34;94677.81;5112423;28;20059;-39
2022/02/13 04:06:38;;;;;;;6.75;4.28;;;;;;;1.69;66.11;94667.53;5112603;28;20028;-37
2022/02/13 04:09:04;;;;;;;7.85;4.50;;;;;;;1.80;65.67;94680.66;5112266;28;20551;-38
2022/02/13 04:11:29;;;;;;;14.00;5.35;;;;;;;1.84;65.70;94681.97;5112484;28;20039;-40
2022/02/13 04:13:54;;;;;;;9.75;4.53;;;;;;;1.62;65.68;94683.47;5112494;28;20520;-40
2022/02/13 04:16:20;;;;;;;7.15;4.68;;;;;;;1.58;66.65;94689.09;5112356;28;20015;-40
2022/02/13 04:18:45;;;;;;;8.02;4.65;;;;;;;1.53;67.67;94676.09;5112147;28;20485;-38
2022/02/13 04:21:11;;;;;;;7.03;4.45;;;;;;;1.59;66.67;94673.50;5112118;28;20024;-37
2022/02/13 04:23:36;;;;;;;6.70;4.22;;;;;;;1.40;66.89;94675.53;5112238;28;20028;-37
2022/02/13 04:26:02;;;;;;;7.82;3.72;;;;;;;1.39;67.92;94676.75;5112120;28;20035;-38
2022/02/13 04:28:28;;;;;;;8.40;4.70;;;;;;;1.47;67.97;94675.22;5111781;28;20420;-35
2022/02/13 04:30:54;;;;;;;6.53;4.72;;;;;;;1.39;67.31;94658.47;5111793;28;20165;-38
2022/02/13 04:33:20;;;;;;;7.47;4.63;;;;;;;1.51;67.67;94678.53;5111938;28;20096;-33
2022/02/13 04:35:45;;;;;;;5.65;4.13;;;;;;;1.50;67.82;94679.72;5111730;28;20572;-35
2022/02/13 04:38:11;;;;;;;15.40;7.80;;;;;;;1.62;67.38;94681.50;5111642;28;20044;-35
2022/02/13 04:40:36;;;;;;;7.55;4.85;;;;;;;1.69;67.02;94683.88;5111596;28;20513;-35
2022/02/13 04:43:01;;;;;;;8.80;4.65;;;;;;;1.43;67.54;94671.88;5111848;28;20031;-36
2022/02/13 04:45:27;;;;;;;8.73;4.20;;;;;;;1.54;66.91;94675.63;5111630;28;20034;-36
2022/02/13 04:47:52;;;;;;;8.10;5.13;;;;;;;1.46;67.61;94679.16;5111520;28;20492;-39
2022/02/13 04:50:21;;;;;;;11.13;4.93;;;;;;;1.52;67.32;94680.78;5111379;28;20028;-38
2022/02/13 04:52:53;;;;;;;16.17;4.72;;;;;;;1.45;67.81;94681.09;5111624;28;20027;-40
2022/02/13 04:55:20;;;;;;;9.25;4.88;;;;;;;1.61;67.27;94677.25;5111256;28;20034;-40
2022/02/13 04:57:46;;;;;;;6.68;4.80;;;;;;;1.53;66.83;94670.66;5110659;28;20019;-38
2022/02/13 05:00:14;;;;;;;6.10;4.15;;;;;;;1.43;66.96;94664.50;5111508;28;20088;-39
2022/02/13 05:02:40;;;;;;;8.48;4.78;;;;;;;1.44;67.53;94666.00;5111483;28;20027;-40
2022/02/13 05:05:06;;;;;;;8.30;3.95;;;;;;;1.39;68.10;94672.06;5111058;28;20035;-37
2022/02/13 05:07:32;;;;;;;5.75;4.18;;;;;;;1.61;66.97;94681.94;5111374;28;20094;-39
2022/02/13 05:09:57;;;;;;;7.75;4.43;;;;;;;1.77;65.66;94682.34;5111028;28;20501;-36
2022/02/13 05:12:22;;;;;;;6.65;3.88;;;;;;;1.82;66.08;94667.34;5111079;28;20027;-39
2022/02/13 05:14:48;;;;;;;12.48;5.80;;;;;;;1.72;65.87;94674.03;5111257;28;20035;-36
2022/02/13 05:17:14;;;;;;;9.10;4.28;;;;;;;1.78;65.88;94675.66;5111071;28;20046;-37
2022/02/13 05:19:40;;;;;;;9.55;4.38;;;;;;;1.56;65.99;94679.88;5110857;28;20023;-38
2022/02/13 05:22:05;;;;;;;7.07;5.22;;;;;;;1.53;66.16;94676.84;5110908;28;20023;-39
2022/02/13 05:24:36;;;;;;;7.68;4.28;;;;;;;1.56;65.41;94658.09;5111131;28;20023;-40
2022/02/13 05:27:05;;;;;;;6.72;3.92;;;;;;;1.61;65.88;94671.06;5110768;28;20028;-37
2022/02/13 05:29:31;;;;;;;8.25;4.57;;;;;;;1.50;65.94;94663.41;5110936;28;20046;-39
2022/02/13 05:31:57;;;;;;;7.40;4.55;;;;;;;1.39;66.42;94669.34;5110789;28;20107;-37
2022/02/13 05:34:22;;;;;;;9.20;4.10;;;;;;;1.49;66.29;94673.53;5110704;28;20454;-36
2022/02/13 05:36:48;;;;;;;8.30;5.03;;;;;;;1.61;66.20;94676.50;5110533;28;20015;-35
2022/02/13 05:39:14;;;;;;;11.07;5.30;;;;;;;1.70;66.62;94671.78;5110600;28;20093;-33
2022/02/13 05:41:40;;;;;;;12.68;4.32;;;;;;;1.66;65.96;94665.00;5110829;28;20038;-36
2022/02/13 05:44:05;;;;;;;7.68;4.78;;;;;;;1.92;65.14;94676.94;5110680;28;20492;-38
2022/02/13 05:46:31;;;;;;;10.93;6.82;;;;;;;2.03;64.25;94677.94;5110519;28;20032;-37
2022/02/13 05:48:57;;;;;;;9.82;4.20;;;;;;;2.26;63.71;94682.63;5110858;28;20084;-38
2022/02/13 05:51:26;;;;;;;13.45;5.78;;;;;;;2.35;63.08;94679.06;5110708;28;20038;-37
2022/02/13 05:53:54;;;;;;;;;;;;;;;2.08;61.93;94684.72;5111401;28;20557;-38
2022/02/13 05:56:20;;;;;;;6.72;4.18;;;;;;;2.17;63.23;94681.94;5110437;28;20002;-36
2022/02/13 05:58:47;;;;;;;7.53;4.60;;;;;;;2.20;62.25;94686.47;5110748;28;20042;-37
2022/02/13 06:01:13;;;;;;;10.23;5.32;;;;;;;2.22;62.76;94687.50;5110421;28;20118;-38
2022/02/13 06:03:38;;;;;;;10.38;5.53;;;;;;;2.39;63.10;94689.78;5100621;28;20016;-37
2022/02/13 06:06:04;;;;;;;11.05;7.45;;;;;;;2.41;62.76;94688.13;5090287;28;20097;-33
2022/02/13 06:08:29;;;;;;;9.63;6.20;;;;;;;2.54;62.08;94696.03;5090376;28;20024;-34
2022/02/13 06:10:55;;;;;;;10.38;7.05;;;;;;;2.52;61.80;94696.50;5094155;28;20662;-34
2022/02/13 06:13:20;;;;;;;15.30;6.88;;;;;;;2.59;62.60;94692.66;5094307;28;20054;-33
2022/02/13 06:15:46;;;;;;;12.80;5.65;;;;;;;2.59;61.93;94693.44;5113934;28;20026;-34
2022/02/13 06:18:11;;;;;;;25.25;5.47;;;;;;;2.73;61.04;94686.50;5114136;28;20028;-32
2022/02/13 06:20:40;;;;;;;11.13;5.53;;;;;;;2.70;60.46;94692.88;5108938;28;20055;-34
2022/02/13 06:23:08;;;;;;;9.03;4.60;;;;;;;2.77;59.31;94692.53;5112317;28;20028;-36
2022/02/13 06:25:35;;;;;;;7.22;4.82;;;;;;;2.87;60.28;94700.16;5106172;28;21102;-33
2022/02/13 06:28:00;;;;;;;23.02;13.68;;;;;;;2.77;60.12;94679.63;5099322;28;20079;-38
2022/02/13 06:30:26;;;;;;;19.83;8.43;;;;;;;2.68;59.50;94698.06;5093531;28;20039;-37
2022/02/13 06:32:52;;;;;;;41.20;29.00;;;;;;;2.78;60.46;94694.03;5093548;28;20103;-36
2022/02/13 06:35:18;;;;;;;7.85;6.03;;;;;;;2.68;60.19;94700.78;5093495;28;20026;-38
2022/02/13 06:37:43;;;;;;;12.73;8.85;;;;;;;2.82;61.33;94710.94;5093041;28;20051;-40
2022/02/13 06:40:09;;;;;;;9.20;6.80;;;;;;;2.92;60.69;94699.47;5093686;28;20044;-37
2022/02/13 06:42:35;;;;;;;11.75;7.25;;;;;;;3.02;60.23;94706.38;5093731;28;20028;-40
2022/02/13 06:45:00;;;;;;;7.53;3.70;;;;;;;3.07;57.99;94699.50;5093279;28;20016;-38
2022/02/13 06:47:26;;;;;;;5.80;4.47;;;;;;;3.05;59.64;94701.97;5095072;28;20170;-35
2022/02/13 06:49:51;;;;;;;9.57;5.82;;;;;;;3.19;59.01;94716.81;5101266;28;20032;-34
2022/02/13 06:52:17;;;;;;;18.08;11.18;;;;;;;3.23;59.46;94703.75;5104177;28;20019;-34
2022/02/13 06:54:43;;;;;;;14.23;9.07;;;;;;;3.33;59.01;94710.63;5102870;28;20103;-40
2022/02/13 06:57:08;;;;;;;14.93;8.38;;;;;;;3.41;57.41;94709.75;5102069;27;20397;-37
2022/02/13 06:59:33;;;;;;;11.20;4.70;;;;;;;3.40;57.25;94705.50;5104030;28;20027;-34
2022/02/13 07:01:59;;;;;;;9.00;5.93;;;;;;;3.38;56.55;94704.50;5104762;28;20020;-38
2022/02/13 07:04:24;;;;;;;6.38;4.07;;;;;;;3.32;55.37;94700.91;5113372;28;20019;-37
2022/02/13 07:06:50;;;;;;;5.95;3.92;;;;;;;3.49;56.21;94702.69;5113288;28;20016;-35
2022/02/13 07:09:15;;;;;;;7.20;4.80;;;;;;;3.55;56.29;94700.78;5113447;28;20020;-41
2022/02/13 07:11:40;;;;;;;11.23;5.55;;;;;;;3.97;56.71;94697.69;5095946;27;20027;-40
2022/02/13 07:14:06;;;;;;;9.15;4.63;;;;;;;4.44;53.86;94691.13;5093254;28;20020;-40
2022/02/13 07:16:31;;;;;;;5.65;3.40;;;;;;;4.85;51.12;94691.84;5098970;28;20023;-40
2022/02/13 07:18:57;;;;;;;7.32;4.40;;;;;;;5.03;53.33;94683.28;5101031;28;20016;-40
2022/02/13 07:21:22;;;;;;;9.20;5.72;;;;;;;5.63;50.94;94691.28;5098399;28;20047;-39
2022/02/13 07:23:48;;;;;;;5.53;3.70;;;;;;;6.05;47.72;94693.38;5099057;28;20020;-41
2022/02/13 07:26:13;;;;;;;7.55;4.88;;;;;;;6.49;47.56;94699.09;5098050;28;20714;-40
2022/02/13 07:31:23;;;;;;;7.50;4.43;;;;;;;7.28;44.90;94700.84;5102870;28;20069;-38
2022/02/13 07:33:48;;;;;;;5.97;3.80;;;;;;;7.15;44.26;94700.56;5101567;28;20114;-39
2022/02/13 07:36:14;;;;;;;3.67;3.10;;;;;;;7.61;43.22;94698.88;5099464;28;20027;-40
2022/02/13 07:38:39;;;;;;;4.00;3.58;;;;;;;7.75;43.29;94691.66;5100563;28;20051;-40
2022/02/13 07:41:06;;;;;;;4.28;3.63;;;;;;;7.54;42.69;94695.88;5099366;28;20020;-42
2022/02/13 07:43:33;;;;;;;4.55;3.00;;;;;;;7.08;43.25;94696.28;5097868;28;20023;-39
2022/02/13 07:45:58;;;;;;;8.77;4.47;;;;;;;7.00;43.60;94689.03;5100529;28;20084;-40
2022/02/13 07:48:24;;;;;;;8.27;4.20;;;;;;;7.14;44.39;94688.84;5104274;28;20031;-41
2022/02/13 07:50:49;;;;;;;6.50;3.58;;;;;;;7.83;43.21;94687.13;5097428;28;20092;-39
2022/02/13 07:53:15;;;;;;;6.50;3.22;;;;;;;8.20;42.94;94681.34;5098543;28;20508;-42
2022/02/13 07:55:41;;;;;;;7.22;3.08;;;;;;;8.99;39.99;94677.81;5096873;28;20029;-42
2022/02/13 07:58:07;;;;;;;4.18;3.15;;;;;;;8.56;39.77;94680.25;5097300;28;20023;-41
2022/02/13 08:00:32;;;;;;;4.38;3.28;;;;;;;8.56;40.51;94680.25;5098655;28;20027;-39
2022/02/13 08:02:58;;;;;;;5.97;3.58;;;;;;;8.48;41.04;94675.78;5098872;28;20083;-41
2022/02/13 08:05:24;;;;;;;8.70;4.55;;;;;;;9.08;40.56;94661.75;5097277;28;20256;-40
2022/02/13 08:07:50;;;;;;;4.68;3.35;;;;;;;8.90;39.85;94670.59;5097032;28;20059;-42
2022/02/13 08:10:17;;;;;;;6.75;3.38;;;;;;;9.19;39.24;94660.94;5097764;28;20076;-35
2022/02/13 08:12:43;;;;;;;3.55;2.83;;;;;;;9.15;38.09;94669.47;5098856;28;20109;-36
2022/02/13 08:15:10;;;;;;;7.65;4.18;;;;;;;8.87;39.40;94663.38;5098895;28;20863;-37
2022/02/13 08:17:35;;;;;;;5.03;2.85;;;;;;;9.56;37.80;94663.19;5097320;28;20028;-38
2022/02/13 08:20:03;;;;;;;5.75;3.22;;;;;;;10.03;37.04;94666.56;5099157;28;20030;-37
2022/02/13 08:22:29;;;;;;;7.05;3.22;;;;;;;9.21;38.58;94665.91;5098843;28;20028;-38
2022/02/13 08:24:54;;;;;;;4.97;2.90;;;;;;;9.27;37.77;94658.38;5097357;27;20052;-33
2022/02/13 08:27:20;;;;;;;5.55;2.90;;;;;;;10.25;36.67;94666.34;5100449;28;20024;-40
2022/02/13 08:29:47;;;;;;;6.57;3.22;;;;;;;10.60;34.97;94644.16;5098410;28;20069;-40
2022/02/13 08:32:12;;;;;;;8.85;3.05;;;;;;;10.82;34.43;94654.19;5102190;28;20028;-38
2022/02/13 08:34:38;;;;;;;6.75;3.17;;;;;;;11.17;35.59;94662.25;5096650;28;20597;-38
2022/02/13 08:37:03;;;;;;;4.47;2.80;;;;;;;11.22;34.93;94651.13;5096448;28;20014;-37
2022/02/13 08:39:29;;;;;;;4.53;2.50;;;;;;;11.29;34.09;94647.75;5098661;28;20036;-38
2022/02/13 08:41:54;;;;;;;3.65;2.30;;;;;;;11.25;32.99;94639.03;5103111;27;20028;-35
2022/02/13 08:44:20;;;;;;;4.68;2.80;;;;;;;11.40;33.66;94650.38;5109205;28;20031;-35
2022/02/13 08:46:46;;;;;;;5.78;3.30;;;;;;;11.05;33.05;94650.59;5109767;28;20085;-36
2022/02/13 08:49:13;;;;;;;4.05;2.88;;;;;;;10.66;34.51;94647.59;5109641;28;20520;-38
2022/02/13 08:51:38;;;;;;;3.10;2.55;;;;;;;10.39;34.13;94643.88;5109449;28;20035;-38
2022/02/13 08:54:03;;;;;;;39.78;6.30;;;;;;;10.96;34.30;94647.47;5108516;28;20449;-38
2022/02/13 08:56:29;;;;;;;7.32;3.35;;;;;;;11.32;33.10;94638.44;5109216;28;20725;-39
2022/02/13 08:58:55;;;;;;;7.93;5.13;;;;;;;11.78;32.18;94637.22;5108851;28;20028;-37
2022/02/13 09:01:21;;;;;;;15.00;7.18;;;;;;;12.53;33.68;94634.88;5108862;28;20034;-39
2022/02/13 09:03:47;;;;;;;5.15;3.53;;;;;;;13.02;31.40;94642.69;5108663;28;20036;-36
2022/02/13 09:06:12;;;;;;;4.80;3.25;;;;;;;12.79;28.53;94639.66;5105840;28;20093;-38
2022/02/13 09:08:38;;;;;;;3.95;3.10;;;;;;;11.78;30.17;94644.78;5088783;28;20032;-37
2022/02/13 09:11:03;;;;;;;5.95;3.10;;;;;;;9.52;33.52;94643.41;5088666;28;20437;-39
2022/02/13 09:13:29;;;;;;;5.82;3.55;;;;;;;9.40;34.38;94639.97;5088770;28;20028;-37
2022/02/13 09:15:54;;;;;;;4.13;2.60;;;;;;;8.44;36.03;94645.78;5088779;28;20039;-37
2022/02/13 09:18:19;;;;;;;5.13;2.83;;;;;;;8.17;36.33;94639.06;5088702;28;20035;-36
2022/02/13 09:20:45;;;;;;;4.93;3.85;;;;;;;7.98;37.59;94629.88;5088619;28;20036;-34
2022/02/13 09:23:17;;;;;;;5.60;4.20;;;;;;;8.23;37.65;94608.78;5088499;28;20103;-36
2022/02/13 09:25:43;;;;;;;4.00;3.05;;;;;;;8.82;38.42;94624.81;5088213;28;20081;-37
2022/02/13 09:28:08;;;;;;;5.75;3.30;;;;;;;9.63;37.98;94621.28;5088232;28;20028;-38
2022/02/13 09:30:34;;;;;;;3.85;2.97;;;;;;;10.49;36.17;94619.41;5088484;28;20036;-38
2022/02/13 09:33:00;;;;;;;3.97;2.88;;;;;;;10.74;35.57;94625.66;5088123;28;20482;-38
2022/02/13 09:35:25;;;;;;;6.60;4.35;;;;;;;11.55;35.44;94613.19;5088164;28;20020;-39
2022/02/13 09:37:50;;;;;;;8.60;5.20;;;;;;;12.62;32.80;94614.31;5106796;28;20059;-41
2022/02/13 09:40:17;;;;;;;5.75;2.80;;;;;;;13.26;30.83;94607.16;5108724;28;20027;-38
2022/02/13 09:42:44;;;;;;;4.97;2.95;;;;;;;14.43;29.29;94599.47;5108642;28;20991;-40
2022/02/13 09:45:11;;;;;;;5.82;2.92;;;;;;;14.05;29.47;94590.13;5097040;28;20027;-37
2022/02/13 09:47:38;;;;;;;8.07;3.20;;;;;;;13.67;31.31;94587.03;5100898;28;20024;-39
2022/02/13 09:50:05;;;;;;;6.10;3.58;;;;;;;13.47;30.37;94596.09;5088382;28;20046;-41
2022/02/13 09:52:31;;;;;;;7.82;3.00;;;;;;;13.46;29.99;94598.13;5086622;28;20489;-37
2022/02/13 09:54:56;;;;;;;3.97;2.65;;;;;;;12.50;31.60;94593.63;5087865;28;20032;-39
2022/02/13 10:00:07;;;;;;;5.47;3.65;;;;;;;12.79;33.74;94587.00;5088280;28;20038;-39
2022/02/13 10:02:41;;;;;;;21.15;12.82;;;;;;;13.68;31.93;94586.50;5091360;28;20016;-38
2022/02/13 10:05:09;;;;;;;3.85;2.78;;;;;;;13.55;30.50;94575.47;5108710;28;20066;-39
2022/02/13 10:07:37;;;;;;;3.60;3.30;;;;;;;12.71;31.56;94573.03;5108602;28;20088;-35
2022/02/13 10:10:08;;;;;;;6.18;3.45;;;;;;;12.73;33.40;94572.53;5108037;28;20457;-36
2022/02/13 10:12:41;;;;;;;6.22;3.85;;;;;;;12.85;32.07;94566.19;5107960;28;20106;-38
2022/02/13 10:15:22;;;;;;;7.32;3.90;;;;;;;12.54;33.19;94569.16;5107807;28;20024;-41
2022/02/13 10:18:06;;;;;;;6.40;3.20;;;;;;;13.07;31.21;94559.44;5107897;28;20122;-36
2022/02/13 10:20:33;;;;;;;5.20;3.42;;;;;;;13.66;29.74;94547.44;5107974;28;20030;-38
2022/02/13 10:23:03;;;;;;;10.25;3.80;;;;;;;13.52;29.76;94550.81;5107994;28;20413;-37
2022/02/13 10:25:29;;;;;;;4.43;3.33;;;;;;;12.54;31.59;94550.47;5108037;28;20142;-38
2022/02/13 10:27:54;;;;;;;5.43;2.78;;;;;;;12.50;31.35;94538.22;5106755;28;20102;-38
2022/02/13 10:30:39;;;;;;;4.05;2.88;;;;;;;12.34;31.63;94533.78;5093690;28;20111;-38
2022/02/13 10:33:21;;;;;;;9.35;5.60;;;;;;;11.96;33.67;94528.47;5087798;28;20505;-40
2022/02/13 10:36:10;;;;;;;5.38;3.00;;;;;;;11.08;33.43;94521.69;5087368;28;20096;-38
2022/02/13 10:38:37;;;;;;;;;;;;;;;10.80;36.54;94515.81;5107958;28;20051;-33
2022/02/13 10:41:19;;;;;;;7.00;2.55;;;;;;;11.40;34.58;94517.63;5107963;28;19920;-36
2022/02/13 10:43:59;;;;;;;6.25;2.97;;;;;;;11.55;33.59;94513.59;5107869;28;20039;-40
2022/02/13 10:46:29;;;;;;;6.35;3.15;;;;;;;12.52;33.12;94496.88;5107471;28;20114;-39
2022/02/13 10:48:55;;;;;;;8.20;4.03;;;;;;;13.33;31.26;94494.81;5100641;28;20035;-37
2022/02/13 10:51:23;;;;;;;4.65;2.75;;;;;;;13.28;31.29;94485.34;5107717;28;20031;-34
2022/02/13 10:53:49;;;;;;;5.55;3.13;;;;;;;13.18;30.46;94478.78;5094932;28;20020;-33
2022/02/13 10:56:14;;;;;;;4.07;2.20;;;;;;;13.19;30.48;94474.72;5090682;28;20074;-37
2022/02/13 10:58:40;;;;;;;3.95;2.58;;;;;;;13.37;30.17;94486.88;5093514;28;20540;-36
2022/02/13 11:01:07;;;;;;;3.05;2.42;;;;;;;12.65;30.96;94471.91;5111239;28;20408;-38
2022/02/13 11:03:33;;;;;;;5.38;2.78;;;;;;;12.25;33.54;94484.38;5111045;28;20031;-37
2022/02/13 11:06:01;;;;;;;5.63;4.40;;;;;;;12.33;33.15;94480.44;5111246;28;20028;-37
2022/02/13 11:08:28;;;;;;;4.78;2.95;;;;;;;11.26;34.89;94476.66;5098432;28;20028;-34
2022/02/13 11:10:56;;;;;;;9.90;5.15;;;;;;;10.12;35.33;94471.06;5089339;28;20051;-37
2022/02/13 11:13:35;;;;;;;6.87;4.70;;;;;;;9.36;38.45;94467.88;5091000;28;20034;-37
2022/02/13 11:16:00;;;;;;;5.40;2.97;;;;;;;9.25;37.39;94473.53;5091070;28;20902;-36
2022/02/13 11:18:30;;;;;;;5.40;3.08;;;;;;;9.25;38.17;94470.78;5090681;28;20064;-33
2022/02/13 11:20:56;;;;;;;6.13;3.17;;;;;;;9.37;38.61;94472.91;5089736;28;20077;-36
2022/02/13 11:23:31;;;;;;;4.45;3.20;;;;;;;9.83;37.55;94472.63;5090706;28;20019;-40
2022/02/13 11:26:07;;;;;;;3.95;2.88;;;;;;;9.61;37.70;94469.41;5096584;28;20023;-38
2022/02/13 11:28:42;;;;;;;6.70;2.53;;;;;;;9.48;37.61;94472.03;5097006;28;20032;-37
2022/02/13 11:31:08;;;;;;;5.63;3.30;;;;;;;8.85;39.03;94464.84;5099850;28;20027;-38
2022/02/13 11:33:35;;;;;;;5.82;3.05;;;;;;;8.84;38.77;94455.09;5109174;28;20030;-36
2022/02/13 11:36:09;;;;;;;5.55;3.10;;;;;;;8.72;39.90;94455.69;5106815;28;20024;-37
2022/02/13 11:38:55;;;;;;;4.35;3.15;;;;;;;8.88;38.82;94461.06;5102143;28;20051;-33
2022/02/13 11:41:49;;;;;;;2.90;2.50;;;;;;;9.18;39.02;94447.28;5110386;28;20028;-38